createdAt,value
2023-05-19T00:01:21.964Z,11.69
2023-05-19T00:03:54.538Z,11.78
2023-05-19T00:06:25.598Z,11.72
2023-05-19T00:09:02.669Z,11.66
2023-05-19T00:11:36.220Z,11.64
2023-05-19T00:14:08.232Z,11.64
2023-05-19T00:16:47.995Z,11.74
2023-05-19T00:19:18.890Z,11.69
2023-05-19T00:21:52.584Z,11.64
2023-05-19T00:24:22.591Z,11.65
2023-05-19T00:26:52.157Z,11.64
2023-05-19T00:29:21.729Z,11.62
2023-05-19T00:31:53.580Z,11.59
2023-05-19T00:34:26.561Z,11.55
2023-05-19T00:36:55.609Z,11.39
2023-05-19T00:39:25.124Z,11.33
2023-05-19T00:41:55.560Z,11.35
2023-05-19T00:44:26.643Z,11.38
2023-05-19T00:46:57.296Z,11.58
2023-05-19T00:49:33.948Z,11.78
2023-05-19T00:52:09.297Z,11.29
2023-05-19T00:54:38.398Z,11.31
2023-05-19T00:57:15.652Z,11.35
2023-05-19T00:59:51.598Z,11.62
2023-05-19T01:02:24.299Z,11.53
2023-05-19T01:04:56.519Z,11.41
2023-05-19T01:07:32.563Z,11.17
2023-05-19T01:10:07.073Z,11.28
2023-05-19T01:12:45.226Z,11.45
2023-05-19T01:15:23.865Z,11.41
2023-05-19T01:18:09.746Z,11.23
2023-05-19T01:20:46.981Z,11.24
2023-05-19T01:23:38.647Z,11.22
2023-05-19T01:26:56.939Z,11.17
2023-05-19T01:29:44.431Z,11.35
2023-05-19T01:32:17.264Z,11.38
2023-05-19T01:34:52.650Z,11.31
2023-05-19T01:37:24.753Z,10.95
2023-05-19T01:39:56.525Z,10.98
2023-05-19T01:42:28.004Z,11.31
2023-05-19T01:44:59.020Z,11.44
2023-05-19T01:47:36.805Z,11.23
2023-05-19T01:50:07.839Z,11.17
2023-05-19T01:52:38.539Z,11.02
2023-05-19T01:55:16.008Z,10.97
2023-05-19T01:58:00.618Z,11.10
2023-05-19T02:00:38.122Z,10.98
2023-05-19T02:03:20.193Z,11.04
2023-05-19T02:05:58.813Z,10.99
2023-05-19T02:08:34.242Z,11.07
2023-05-19T02:11:10.342Z,11.24
2023-05-19T02:13:45.982Z,10.96
2023-05-19T02:16:16.254Z,10.94
2023-05-19T02:18:55.700Z,11.06
2023-05-19T02:21:35.292Z,10.88
2023-05-19T02:24:09.488Z,10.93
2023-05-19T02:26:38.820Z,10.93
2023-05-19T02:29:15.393Z,11.04
2023-05-19T02:31:47.813Z,11.01
2023-05-19T02:34:23.238Z,11.15
2023-05-19T02:36:56.592Z,11.10
2023-05-19T02:39:29.318Z,10.81
2023-05-19T02:42:02.448Z,10.95
2023-05-19T02:44:30.584Z,10.82
2023-05-19T02:47:00.090Z,10.89
2023-05-19T02:49:40.021Z,10.77
2023-05-19T02:52:15.723Z,10.82
2023-05-19T02:54:48.468Z,10.76
2023-05-19T02:57:20.028Z,10.95
2023-05-19T03:00:01.106Z,10.71
2023-05-19T03:02:37.655Z,10.82
2023-05-19T03:05:12.672Z,10.63
2023-05-19T03:07:46.191Z,10.91
2023-05-19T03:10:19.151Z,10.73
2023-05-19T03:12:50.386Z,11.00
2023-05-19T03:15:23.089Z,10.82
2023-05-19T03:17:52.021Z,10.83
2023-05-19T03:20:31.787Z,10.82
2023-05-19T03:23:03.882Z,10.90
2023-05-19T03:25:34.856Z,10.88
2023-05-19T03:28:05.024Z,11.11
2023-05-19T03:30:47.822Z,10.80
2023-05-19T03:33:21.792Z,10.70
2023-05-19T03:35:53.966Z,10.94
2023-05-19T03:38:31.964Z,10.88
2023-05-19T03:41:08.281Z,10.69
2023-05-19T03:43:37.954Z,10.87
2023-05-19T03:46:14.118Z,10.90
2023-05-19T03:49:02.979Z,10.77
2023-05-19T03:52:04.458Z,10.84
2023-05-19T03:54:43.294Z,10.81
2023-05-19T03:57:14.764Z,10.61
2023-05-19T03:59:44.328Z,10.62
2023-05-19T04:02:12.670Z,10.64
2023-05-19T04:04:47.156Z,10.57
2023-05-19T04:07:19.201Z,10.64
2023-05-19T04:09:51.305Z,10.77
2023-05-19T04:12:20.071Z,11.00
2023-05-19T04:14:57.042Z,10.80
2023-05-19T04:17:33.182Z,10.75
2023-05-19T04:20:08.030Z,10.83
2023-05-19T04:22:37.953Z,10.78
2023-05-19T04:25:09.390Z,10.58
2023-05-19T04:27:39.019Z,10.76
2023-05-19T04:30:10.833Z,10.79
2023-05-19T04:32:41.513Z,10.74
2023-05-19T04:35:11.530Z,10.45
2023-05-19T04:37:46.998Z,10.55
2023-05-19T04:40:20.483Z,10.85
2023-05-19T04:42:59.692Z,10.87
2023-05-19T04:45:33.203Z,10.69
2023-05-19T04:48:06.625Z,10.70
2023-05-19T04:50:44.432Z,10.95
2023-05-19T04:53:20.329Z,10.81
2023-05-19T04:55:51.243Z,10.93
2023-05-19T04:58:22.373Z,10.91
2023-05-19T05:00:52.169Z,11.22
2023-05-19T05:03:22.981Z,11.17
2023-05-19T05:05:57.152Z,11.21
2023-05-19T05:08:32.173Z,11.16
2023-05-19T05:11:07.032Z,11.23
2023-05-19T05:13:40.463Z,11.48
2023-05-19T05:16:11.608Z,11.23
2023-05-19T05:18:44.863Z,11.15
2023-05-19T05:21:25.545Z,11.27
2023-05-19T05:24:06.777Z,11.47
2023-05-19T05:26:46.716Z,11.65
2023-05-19T05:29:20.340Z,11.63
2023-05-19T05:32:06.022Z,11.80
2023-05-19T05:34:46.287Z,11.90
2023-05-19T05:37:24.825Z,11.88
2023-05-19T05:40:10.533Z,11.97
2023-05-19T05:42:39.690Z,11.97
2023-05-19T05:45:10.027Z,12.29
2023-05-19T05:47:41.598Z,12.19
2023-05-19T05:50:14.074Z,12.02
2023-05-19T05:52:53.593Z,11.97
2023-05-19T05:55:35.282Z,11.79
2023-05-19T05:58:11.874Z,11.93
2023-05-19T06:00:43.478Z,12.02
2023-05-19T06:03:33.584Z,12.23
2023-05-19T06:06:10.686Z,11.97
2023-05-19T06:08:51.859Z,12.30
2023-05-19T06:11:39.736Z,12.13
2023-05-19T06:14:13.014Z,12.40
2023-05-19T06:17:20.192Z,12.51
2023-05-19T06:19:52.250Z,12.56
2023-05-19T06:22:26.777Z,12.67
2023-05-19T06:24:58.348Z,12.70
2023-05-19T06:27:37.726Z,12.96
2023-05-19T06:30:08.872Z,12.99
2023-05-19T06:32:54.780Z,13.05
2023-05-19T06:35:25.456Z,12.63
2023-05-19T06:37:55.844Z,12.87
2023-05-19T06:40:28.099Z,13.13
2023-05-19T06:43:06.927Z,13.21
2023-05-19T06:45:57.315Z,13.00
2023-05-19T06:48:29.047Z,13.01
2023-05-19T06:51:08.132Z,12.93
2023-05-19T06:53:36.894Z,12.95
2023-05-19T06:56:14.997Z,12.81
2023-05-19T06:58:50.964Z,12.73
2023-05-19T07:01:22.491Z,13.03
2023-05-19T07:04:05.941Z,12.89
2023-05-19T07:06:35.939Z,12.57
2023-05-19T07:09:12.578Z,12.62
2023-05-19T07:11:43.721Z,12.63
2023-05-19T07:14:20.870Z,13.07
2023-05-19T07:16:50.464Z,13.03
2023-05-19T07:19:20.689Z,12.86
2023-05-19T07:21:51.253Z,12.77
2023-05-19T07:24:30.830Z,13.01
2023-05-19T07:27:01.495Z,13.33
2023-05-19T07:29:46.071Z,13.30
2023-05-19T07:32:15.229Z,13.29
2023-05-19T07:34:54.042Z,13.31
2023-05-19T07:37:24.537Z,12.96
2023-05-19T07:39:52.909Z,13.28
2023-05-19T07:42:21.991Z,13.43
2023-05-19T07:44:52.093Z,13.43
2023-05-19T07:47:22.609Z,13.41
2023-05-19T07:49:52.849Z,13.43
2023-05-19T07:52:23.525Z,13.46
2023-05-19T07:55:00.496Z,13.26
2023-05-19T07:57:31.275Z,13.53
2023-05-19T08:00:13.594Z,13.64
2023-05-19T08:02:48.608Z,13.63
2023-05-19T08:05:19.489Z,13.89
2023-05-19T08:07:55.602Z,13.88
2023-05-19T08:10:23.656Z,14.01
2023-05-19T08:12:52.506Z,14.00
2023-05-19T08:15:25.526Z,14.02
2023-05-19T08:17:55.995Z,14.20
2023-05-19T08:20:33.212Z,14.36
2023-05-19T08:23:04.482Z,14.59
2023-05-19T08:25:33.959Z,14.71
2023-05-19T08:28:05.775Z,14.52
2023-05-19T08:30:48.715Z,14.51
2023-05-19T08:33:17.628Z,14.64
2023-05-19T08:35:54.852Z,14.55
2023-05-19T08:38:27.360Z,14.64
2023-05-19T08:40:58.340Z,14.66
2023-05-19T08:43:27.069Z,14.63
2023-05-19T08:46:01.563Z,14.64
2023-05-19T08:48:31.302Z,14.67
2023-05-19T08:51:07.459Z,14.76
2023-05-19T08:53:38.710Z,14.86
2023-05-19T08:56:15.678Z,14.79
2023-05-19T08:58:50.867Z,14.78
2023-05-19T09:01:26.780Z,14.86
2023-05-19T09:04:00.644Z,15.00
2023-05-19T09:06:32.728Z,15.23
2023-05-19T09:09:06.571Z,15.44
2023-05-19T09:11:38.059Z,15.61
2023-05-19T09:14:16.242Z,15.64
2023-05-19T09:16:58.675Z,15.98
2023-05-19T09:19:30.346Z,15.84
2023-05-19T09:22:04.817Z,15.90
2023-05-19T09:24:43.229Z,16.02
2023-05-19T09:27:17.400Z,16.15
2023-05-19T09:29:49.979Z,15.97
2023-05-19T09:32:28.541Z,16.02
2023-05-19T09:35:00.205Z,16.21
2023-05-19T09:37:30.114Z,16.54
2023-05-19T09:39:59.346Z,16.44
2023-05-19T09:42:31.168Z,16.50
2023-05-19T09:45:12.445Z,16.47
2023-05-19T09:47:43.956Z,16.29
2023-05-19T09:50:17.516Z,16.36
2023-05-19T09:52:46.196Z,16.85
2023-05-19T09:55:23.051Z,17.02
2023-05-19T09:57:55.248Z,16.80
2023-05-19T10:00:25.542Z,16.98
2023-05-19T10:03:11.980Z,17.06
2023-05-19T10:05:41.729Z,17.24
2023-05-19T10:08:15.939Z,17.16
2023-05-19T10:10:44.231Z,17.29
2023-05-19T10:13:19.450Z,17.32
2023-05-19T10:18:27.984Z,17.79
2023-05-19T10:21:06.086Z,17.88
2023-05-19T10:23:36.530Z,18.00
2023-05-19T10:26:08.661Z,17.94
2023-05-19T10:28:44.122Z,17.86
2023-05-19T10:31:20.222Z,17.74
2023-05-19T10:34:27.426Z,17.56
2023-05-19T10:37:08.254Z,17.11
2023-05-19T10:39:43.731Z,17.10
2023-05-19T10:42:20.030Z,17.13
2023-05-19T10:45:00.165Z,17.15
2023-05-19T10:47:29.244Z,17.21
2023-05-19T10:50:04.481Z,17.42
2023-05-19T10:52:43.085Z,17.16
2023-05-19T10:55:17.887Z,17.60
2023-05-19T10:58:00.453Z,17.98
2023-05-19T11:00:32.486Z,17.86
2023-05-19T11:09:31.142Z,18.40
2023-05-19T11:12:14.884Z,19.10
2023-05-19T11:14:50.833Z,19.59
2023-05-19T11:17:22.550Z,19.70
2023-05-19T11:20:08.234Z,19.80
2023-05-19T11:22:40.977Z,19.19
2023-05-19T11:25:20.354Z,18.79
2023-05-19T11:27:51.455Z,19.02
2023-05-19T11:30:24.188Z,19.48
2023-05-19T11:32:57.734Z,19.27
2023-05-19T11:35:29.591Z,18.80
2023-05-19T11:38:00.779Z,18.88
2023-05-19T11:40:50.436Z,18.63
2023-05-19T11:43:27.887Z,18.85
2023-05-19T11:46:06.409Z,18.89
2023-05-19T11:48:37.692Z,19.00
2023-05-19T11:51:19.607Z,19.44
2023-05-19T11:53:59.806Z,20.14
2023-05-19T11:56:47.075Z,19.88
2023-05-19T11:59:19.420Z,20.09
2023-05-19T12:01:50.377Z,19.91
2023-05-19T12:04:23.524Z,19.78
2023-05-19T12:06:55.527Z,19.64
2023-05-19T12:09:26.836Z,19.73
2023-05-19T12:12:05.439Z,20.01
2023-05-19T12:14:42.480Z,19.82
2023-05-19T12:17:21.916Z,19.75
2023-05-19T12:19:58.698Z,19.44
2023-05-19T12:22:35.285Z,19.13
2023-05-19T12:25:13.722Z,19.10
2023-05-19T12:28:04.027Z,19.32
2023-05-19T12:30:41.280Z,20.28
2023-05-19T12:33:19.761Z,21.07
2023-05-19T12:35:58.032Z,21.62
2023-05-19T12:38:34.422Z,21.98
2023-05-19T12:41:05.485Z,22.31
2023-05-19T12:43:43.634Z,22.44
2023-05-19T12:46:19.770Z,22.10
2023-05-19T12:48:52.075Z,22.33
2023-05-19T12:51:22.920Z,21.91
2023-05-19T12:53:57.722Z,21.97
2023-05-19T12:56:31.163Z,22.08
2023-05-19T12:59:09.386Z,22.68
2023-05-19T13:01:43.787Z,22.58
2023-05-19T13:04:15.516Z,22.08
2023-05-19T13:06:46.611Z,22.65
2023-05-19T13:09:23.358Z,23.26
2023-05-19T13:11:57.213Z,23.52
2023-05-19T13:14:31.339Z,23.55
2023-05-19T13:17:01.283Z,23.18
2023-05-19T13:19:30.527Z,22.54
2023-05-19T13:22:01.219Z,21.94
2023-05-19T13:24:42.769Z,21.96
2023-05-19T13:27:19.126Z,22.09
2023-05-19T13:30:03.677Z,22.07
2023-05-19T13:32:36.112Z,21.53
2023-05-19T13:35:06.926Z,21.24
2023-05-19T13:37:41.311Z,21.03
2023-05-19T13:40:24.055Z,21.85
2023-05-19T13:43:00.888Z,21.77
2023-05-19T13:45:39.556Z,22.68
2023-05-19T13:48:13.384Z,23.01
2023-05-19T13:50:49.928Z,23.54
2023-05-19T13:53:29.323Z,23.97
2023-05-19T13:56:00.485Z,24.14
2023-05-19T13:58:38.405Z,23.72
2023-05-19T14:01:18.703Z,23.50
2023-05-19T14:03:47.657Z,23.25
2023-05-19T14:06:23.730Z,22.68
2023-05-19T14:09:00.362Z,22.17
2023-05-19T14:11:29.636Z,22.27
2023-05-19T14:14:01.275Z,22.41
2023-05-19T14:16:39.610Z,22.27
2023-05-19T14:19:19.042Z,22.49
2023-05-19T14:21:52.903Z,22.67
2023-05-19T14:24:30.823Z,23.26
2023-05-19T14:27:01.706Z,23.79
2023-05-19T14:29:32.394Z,23.54
2023-05-19T14:32:05.843Z,23.72
2023-05-19T14:34:36.372Z,24.21
2023-05-19T14:37:19.239Z,24.53
2023-05-19T14:39:51.000Z,24.64
2023-05-19T14:42:29.092Z,24.89
2023-05-19T14:45:11.224Z,25.08
2023-05-19T14:47:50.627Z,25.31
2023-05-19T14:50:26.117Z,24.70
2023-05-19T14:52:58.588Z,24.28
2023-05-19T14:55:31.494Z,23.57
2023-05-19T14:58:19.970Z,23.48
2023-05-19T15:01:00.288Z,23.13
2023-05-19T15:03:49.394Z,22.47
2023-05-19T15:06:27.233Z,22.19
2023-05-19T15:09:07.342Z,22.17
2023-05-19T15:11:36.436Z,21.91
2023-05-19T15:14:09.980Z,21.68
2023-05-19T15:16:40.639Z,21.69
2023-05-19T15:19:25.098Z,22.07
2023-05-19T15:21:56.545Z,22.99
2023-05-19T15:24:33.903Z,23.62
2023-05-19T15:27:11.464Z,23.96
2023-05-19T15:29:45.336Z,23.83
2023-05-19T15:32:19.386Z,23.63
2023-05-19T15:34:52.374Z,22.80
2023-05-19T15:37:21.010Z,22.58
2023-05-19T15:39:58.040Z,22.45
2023-05-19T15:42:28.383Z,22.20
2023-05-19T15:44:58.843Z,21.81
2023-05-19T15:47:36.625Z,21.67
2023-05-19T15:50:14.319Z,21.51
2023-05-19T15:52:53.723Z,21.39
2023-05-19T15:55:37.656Z,21.22
2023-05-19T15:58:11.535Z,21.03
2023-05-19T16:00:45.517Z,20.97
2023-05-19T16:03:28.568Z,20.95
2023-05-19T16:06:04.536Z,20.73
2023-05-19T16:08:33.729Z,20.72
2023-05-19T16:11:07.734Z,20.51
2023-05-19T16:13:44.923Z,20.56
2023-05-19T16:16:15.734Z,20.65
2023-05-19T16:18:50.898Z,20.58
2023-05-19T16:21:29.050Z,20.47
2023-05-19T16:24:00.846Z,20.47
2023-05-19T16:26:31.048Z,20.38
2023-05-19T16:29:06.347Z,20.28
2023-05-19T16:31:43.582Z,20.24
2023-05-19T16:34:15.528Z,20.15
2023-05-19T16:37:03.518Z,19.99
2023-05-19T16:39:41.147Z,20.11
2023-05-19T16:42:14.944Z,19.93
2023-05-19T16:44:49.598Z,19.86
2023-05-19T16:47:19.996Z,19.64
2023-05-19T16:50:05.160Z,19.71
2023-05-19T16:52:52.703Z,19.43
2023-05-19T16:55:25.483Z,19.42
2023-05-19T16:58:03.573Z,19.37
2023-05-19T17:00:37.379Z,19.44
2023-05-19T17:03:08.595Z,19.39
2023-05-19T17:05:39.090Z,19.36
2023-05-19T17:08:26.031Z,19.89
2023-05-19T17:11:06.411Z,20.76
2023-05-19T17:13:39.357Z,21.31
2023-05-19T17:16:10.310Z,21.49
2023-05-19T17:18:46.677Z,21.69
2023-05-19T17:21:22.418Z,21.82
2023-05-19T17:24:01.309Z,21.68
2023-05-19T17:26:30.905Z,21.23
2023-05-19T17:29:00.360Z,20.70
2023-05-19T17:31:36.893Z,20.33
2023-05-19T17:34:09.108Z,20.10
2023-05-19T17:36:45.620Z,19.84
2023-05-19T17:39:34.243Z,19.61
2023-05-19T17:42:06.271Z,19.55
2023-05-19T17:44:37.311Z,19.41
2023-05-19T17:47:11.729Z,19.34
2023-05-19T17:49:47.743Z,19.31
2023-05-19T17:52:26.108Z,19.17
2023-05-19T17:55:10.348Z,19.09
2023-05-19T17:57:42.051Z,18.80
2023-05-19T18:00:18.653Z,18.82
2023-05-19T18:02:54.616Z,18.85
2023-05-19T18:05:38.133Z,18.81
2023-05-19T18:08:19.743Z,18.72
2023-05-19T18:10:55.528Z,18.66
2023-05-19T18:13:30.217Z,18.53
2023-05-19T18:16:02.324Z,18.59
2023-05-19T18:18:49.239Z,18.50
2023-05-19T18:21:30.470Z,18.43
2023-05-19T18:24:05.927Z,18.34
2023-05-19T18:26:45.250Z,18.21
2023-05-19T18:29:24.264Z,18.18
2023-05-19T18:32:10.028Z,18.16
2023-05-19T18:34:53.021Z,18.00
2023-05-19T18:37:24.234Z,17.95
2023-05-19T18:39:58.977Z,17.98
2023-05-19T18:42:36.417Z,17.89
2023-05-19T18:45:20.826Z,17.89
2023-05-19T18:47:57.589Z,17.85
2023-05-19T18:50:33.380Z,17.75
2023-05-19T18:53:15.930Z,17.72
2023-05-19T18:55:50.753Z,17.68
2023-05-19T18:58:23.290Z,17.72
2023-05-19T19:01:04.398Z,17.50
2023-05-19T19:03:36.947Z,17.45
2023-05-19T19:06:12.378Z,17.45
2023-05-19T19:08:56.693Z,17.48
2023-05-19T19:11:38.505Z,17.53
2023-05-19T19:14:18.336Z,17.48
2023-05-19T19:16:57.573Z,17.49
2023-05-19T19:19:34.209Z,17.46
2023-05-19T19:22:07.317Z,17.47
2023-05-19T19:24:44.863Z,17.39
2023-05-19T19:27:18.931Z,17.42
2023-05-19T19:30:12.122Z,17.32
2023-05-19T19:32:50.261Z,17.33
2023-05-19T19:35:29.417Z,17.25
2023-05-19T19:38:07.291Z,17.24
2023-05-19T19:40:44.617Z,17.15
2023-05-19T19:43:15.632Z,17.08
2023-05-19T19:45:55.983Z,17.11
2023-05-19T19:48:27.441Z,16.87
2023-05-19T19:51:06.322Z,16.90
2023-05-19T19:53:39.226Z,16.72
2023-05-19T19:56:25.559Z,16.72
2023-05-19T19:59:06.536Z,16.64
2023-05-19T20:01:45.499Z,16.70
2023-05-19T20:04:28.516Z,16.75
2023-05-19T20:06:59.583Z,16.72
2023-05-19T20:09:31.382Z,16.55
2023-05-19T20:12:11.088Z,16.57
2023-05-19T20:14:44.726Z,16.64
2023-05-19T20:17:20.474Z,16.55
2023-05-19T20:19:57.131Z,16.74
2023-05-19T20:22:28.281Z,16.70
2023-05-19T20:25:06.485Z,16.59
2023-05-19T20:27:39.020Z,16.76
2023-05-19T20:30:22.854Z,16.61
2023-05-19T20:32:59.787Z,16.68
2023-05-19T20:35:41.571Z,16.63
2023-05-19T20:38:19.058Z,16.62
2023-05-19T20:40:49.909Z,16.74
2023-05-19T20:43:24.980Z,16.63
2023-05-19T20:45:56.617Z,16.69
2023-05-19T20:48:33.435Z,16.63
2023-05-19T20:51:03.686Z,16.53
2023-05-19T20:53:39.993Z,16.54
2023-05-19T20:56:12.866Z,16.53
2023-05-19T20:58:48.226Z,16.21
2023-05-19T21:01:19.583Z,16.20
2023-05-19T21:04:01.412Z,16.28
2023-05-19T21:06:39.331Z,16.12
2023-05-19T21:09:12.459Z,16.15
2023-05-19T21:11:45.919Z,16.08
2023-05-19T21:14:16.044Z,16.27
2023-05-19T21:16:51.013Z,16.25
2023-05-19T21:19:24.346Z,16.23
2023-05-19T21:21:57.062Z,16.35
2023-05-19T21:24:31.781Z,16.27
2023-05-19T21:27:03.049Z,16.34
2023-05-19T21:29:39.863Z,16.25
2023-05-19T21:32:11.151Z,16.26
2023-05-19T21:34:49.709Z,16.06
2023-05-19T21:37:29.417Z,16.20
2023-05-19T21:40:05.819Z,16.21
2023-05-19T21:42:42.668Z,16.15
2023-05-19T21:45:12.906Z,16.04
2023-05-19T21:47:42.783Z,15.93
2023-05-19T21:50:24.746Z,16.11
2023-05-19T21:53:05.481Z,15.90
2023-05-19T21:55:36.671Z,15.93
2023-05-19T21:58:05.267Z,15.94
2023-05-19T22:00:37.869Z,15.85
2023-05-19T22:03:09.812Z,15.86
2023-05-19T22:05:44.280Z,15.89
2023-05-19T22:08:13.143Z,15.84
2023-05-19T22:10:46.442Z,15.54
2023-05-19T22:13:21.567Z,15.67
2023-05-19T22:16:07.191Z,15.50
2023-05-19T22:18:51.964Z,15.54
2023-05-19T22:21:27.176Z,15.64
2023-05-19T22:24:02.543Z,15.67
2023-05-19T22:26:42.638Z,15.65
2023-05-19T22:29:17.231Z,15.55
2023-05-19T22:31:49.015Z,15.49
2023-05-19T22:34:21.565Z,15.31
2023-05-19T22:36:56.230Z,15.39
2023-05-19T22:39:25.062Z,15.47
2023-05-19T22:41:54.310Z,15.44
2023-05-19T22:44:25.281Z,15.40
2023-05-19T22:46:59.090Z,15.46
2023-05-19T22:49:30.022Z,15.41
2023-05-19T22:52:14.349Z,15.38
2023-05-19T22:54:51.011Z,15.25
2023-05-19T22:57:22.470Z,15.18
2023-05-19T22:59:53.678Z,15.40
2023-05-19T23:02:23.998Z,15.18
2023-05-19T23:04:54.692Z,15.12
2023-05-19T23:07:24.831Z,14.98
2023-05-19T23:09:53.601Z,15.03
2023-05-19T23:12:22.700Z,15.19
2023-05-19T23:14:53.677Z,15.13
2023-05-19T23:17:27.828Z,15.15
2023-05-19T23:19:58.799Z,15.06
2023-05-19T23:22:45.588Z,15.13
2023-05-19T23:25:16.791Z,14.97
2023-05-19T23:27:55.302Z,15.12
2023-05-19T23:30:31.811Z,15.15
2023-05-19T23:33:00.949Z,15.00
2023-05-19T23:35:33.118Z,15.00
2023-05-19T23:38:06.352Z,15.02
2023-05-19T23:40:37.981Z,15.05
2023-05-19T23:43:09.911Z,15.08
2023-05-19T23:45:40.492Z,15.00
2023-05-19T23:48:12.575Z,15.06
2023-05-19T23:50:41.201Z,14.98
2023-05-19T23:53:26.732Z,15.10
2023-05-19T23:56:00.666Z,15.00
2023-05-19T23:58:29.826Z,14.95
